sensor_id;sensor_type;location;lat;lon;timestamp;temperature;humidity
10057;DHT22;5068;51.286;7.518;2023-07-31T00:00:25;16.00;66.90
10057;DHT22;5068;51.286;7.518;2023-07-31T00:01:57;16.10;67.20
10057;DHT22;5068;51.286;7.518;2023-07-31T00:03:31;16.00;67.30
10057;DHT22;5068;51.286;7.518;2023-07-31T00:05:04;16.00;67.30
10057;DHT22;5068;51.286;7.518;2023-07-31T00:06:39;16.00;67.60
10057;DHT22;5068;51.286;7.518;2023-07-31T00:08:14;16.00;67.30
10057;DHT22;5068;51.286;7.518;2023-07-31T00:09:46;16.00;67.30
10057;DHT22;5068;51.286;7.518;2023-07-31T00:11:20;16.00;67.30
10057;DHT22;5068;51.286;7.518;2023-07-31T00:12:54;16.00;67.40
10057;DHT22;5068;51.286;7.518;2023-07-31T00:14:27;16.00;67.60
10057;DHT22;5068;51.286;7.518;2023-07-31T00:16:00;16.00;67.50
10057;DHT22;5068;51.286;7.518;2023-07-31T00:17:34;15.90;67.40
10057;DHT22;5068;51.286;7.518;2023-07-31T00:19:06;16.00;67.70
10057;DHT22;5068;51.286;7.518;2023-07-31T00:20:40;16.00;67.70
10057;DHT22;5068;51.286;7.518;2023-07-31T00:22:14;16.00;67.60
10057;DHT22;5068;51.286;7.518;2023-07-31T00:23:47;15.90;67.60
10057;DHT22;5068;51.286;7.518;2023-07-31T00:25:20;15.90;67.40
10057;DHT22;5068;51.286;7.518;2023-07-31T00:26:53;16.00;67.70
10057;DHT22;5068;51.286;7.518;2023-07-31T00:28:26;15.90;67.40
10057;DHT22;5068;51.286;7.518;2023-07-31T00:30:01;15.90;67.40
10057;DHT22;5068;51.286;7.518;2023-07-31T00:31:35;15.90;67.90
10057;DHT22;5068;51.286;7.518;2023-07-31T00:33:07;15.80;67.70
10057;DHT22;5068;51.286;7.518;2023-07-31T00:34:42;15.90;67.90
10057;DHT22;5068;51.286;7.518;2023-07-31T00:36:14;15.90;67.80
10057;DHT22;5068;51.286;7.518;2023-07-31T00:37:49;15.90;67.90
10057;DHT22;5068;51.286;7.518;2023-07-31T00:39:21;15.90;67.60
10057;DHT22;5068;51.286;7.518;2023-07-31T00:40:55;15.90;68.00
10057;DHT22;5068;51.286;7.518;2023-07-31T00:42:28;15.90;67.70
10057;DHT22;5068;51.286;7.518;2023-07-31T00:44:01;15.90;67.60
10057;DHT22;5068;51.286;7.518;2023-07-31T00:45:35;15.90;67.90
10057;DHT22;5068;51.286;7.518;2023-07-31T00:47:08;15.90;67.90
10057;DHT22;5068;51.286;7.518;2023-07-31T00:48:41;16.10;68.10
10057;DHT22;5068;51.286;7.518;2023-07-31T00:50:14;15.90;67.90
10057;DHT22;5068;51.286;7.518;2023-07-31T00:51:48;15.90;67.70
10057;DHT22;5068;51.286;7.518;2023-07-31T00:53:24;15.90;67.60
10057;DHT22;5068;51.286;7.518;2023-07-31T00:54:58;15.90;67.70
10057;DHT22;5068;51.286;7.518;2023-07-31T00:56:31;15.90;67.90
10057;DHT22;5068;51.286;7.518;2023-07-31T00:58:05;15.90;68.60
10057;DHT22;5068;51.286;7.518;2023-07-31T00:59:38;15.90;67.70
10057;DHT22;5068;51.286;7.518;2023-07-31T01:01:12;15.90;67.80
10057;DHT22;5068;51.286;7.518;2023-07-31T01:02:45;15.90;67.90
10057;DHT22;5068;51.286;7.518;2023-07-31T01:04:20;15.90;68.00
10057;DHT22;5068;51.286;7.518;2023-07-31T01:06:01;15.90;68.10
10057;DHT22;5068;51.286;7.518;2023-07-31T01:07:47;15.80;68.40
10057;DHT22;5068;51.286;7.518;2023-07-31T01:09:31;15.80;68.30
10057;DHT22;5068;51.286;7.518;2023-07-31T01:11:15;15.90;68.30
10057;DHT22;5068;51.286;7.518;2023-07-31T01:12:51;15.90;68.10
10057;DHT22;5068;51.286;7.518;2023-07-31T01:14:26;15.90;68.10
10057;DHT22;5068;51.286;7.518;2023-07-31T01:15:59;15.90;67.90
10057;DHT22;5068;51.286;7.518;2023-07-31T01:17:32;15.90;68.00
10057;DHT22;5068;51.286;7.518;2023-07-31T01:19:06;15.90;67.90
10057;DHT22;5068;51.286;7.518;2023-07-31T01:20:42;15.90;68.10
10057;DHT22;5068;51.286;7.518;2023-07-31T01:24:55;15.90;68.40
10057;DHT22;5068;51.286;7.518;2023-07-31T01:26:40;15.90;68.20
10057;DHT22;5068;51.286;7.518;2023-07-31T01:28:22;15.90;67.90
10057;DHT22;5068;51.286;7.518;2023-07-31T01:30:03;15.90;67.90
10057;DHT22;5068;51.286;7.518;2023-07-31T01:31:47;15.90;67.80
10057;DHT22;5068;51.286;7.518;2023-07-31T01:33:21;15.90;67.80
10057;DHT22;5068;51.286;7.518;2023-07-31T01:34:55;15.90;67.60
10057;DHT22;5068;51.286;7.518;2023-07-31T01:36:32;15.80;67.60
10057;DHT22;5068;51.286;7.518;2023-07-31T01:38:05;15.90;67.60
10057;DHT22;5068;51.286;7.518;2023-07-31T01:39:38;15.90;67.60
10057;DHT22;5068;51.286;7.518;2023-07-31T01:41:10;15.80;67.50
10057;DHT22;5068;51.286;7.518;2023-07-31T01:42:45;15.80;67.70
10057;DHT22;5068;51.286;7.518;2023-07-31T01:44:19;15.90;67.50
10057;DHT22;5068;51.286;7.518;2023-07-31T01:45:53;16.00;67.70
10057;DHT22;5068;51.286;7.518;2023-07-31T01:47:26;15.90;67.50
10057;DHT22;5068;51.286;7.518;2023-07-31T01:48:59;15.90;67.50
10057;DHT22;5068;51.286;7.518;2023-07-31T01:50:32;15.80;67.50
10057;DHT22;5068;51.286;7.518;2023-07-31T01:52:06;15.90;67.60
10057;DHT22;5068;51.286;7.518;2023-07-31T01:53:39;15.80;67.80
10057;DHT22;5068;51.286;7.518;2023-07-31T01:55:13;15.80;67.60
10057;DHT22;5068;51.286;7.518;2023-07-31T01:56:45;15.80;67.80
10057;DHT22;5068;51.286;7.518;2023-07-31T01:58:20;15.80;68.40
10057;DHT22;5068;51.286;7.518;2023-07-31T01:59:53;15.80;67.30
10057;DHT22;5068;51.286;7.518;2023-07-31T02:01:26;15.90;67.60
10057;DHT22;5068;51.286;7.518;2023-07-31T02:03:00;15.80;67.40
10057;DHT22;5068;51.286;7.518;2023-07-31T02:04:32;15.80;67.50
10057;DHT22;5068;51.286;7.518;2023-07-31T02:06:07;15.80;67.60
10057;DHT22;5068;51.286;7.518;2023-07-31T02:07:41;15.80;67.70
10057;DHT22;5068;51.286;7.518;2023-07-31T02:09:13;15.80;67.50
10057;DHT22;5068;51.286;7.518;2023-07-31T02:10:47;15.80;67.60
10057;DHT22;5068;51.286;7.518;2023-07-31T02:12:20;15.80;67.50
10057;DHT22;5068;51.286;7.518;2023-07-31T02:13:55;15.80;67.60
10057;DHT22;5068;51.286;7.518;2023-07-31T02:15:27;15.80;67.20
10057;DHT22;5068;51.286;7.518;2023-07-31T02:17:01;15.80;67.60
10057;DHT22;5068;51.286;7.518;2023-07-31T02:18:35;15.80;67.60
10057;DHT22;5068;51.286;7.518;2023-07-31T02:20:08;15.80;67.40
10057;DHT22;5068;51.286;7.518;2023-07-31T02:21:42;15.80;67.80
10057;DHT22;5068;51.286;7.518;2023-07-31T02:23:15;15.80;67.40
10057;DHT22;5068;51.286;7.518;2023-07-31T02:24:48;15.80;67.60
10057;DHT22;5068;51.286;7.518;2023-07-31T02:26:21;15.80;67.40
10057;DHT22;5068;51.286;7.518;2023-07-31T02:27:54;15.80;67.50
10057;DHT22;5068;51.286;7.518;2023-07-31T02:29:29;15.90;67.60
10057;DHT22;5068;51.286;7.518;2023-07-31T02:31:02;15.80;67.30
10057;DHT22;5068;51.286;7.518;2023-07-31T02:32:35;15.80;67.20
10057;DHT22;5068;51.286;7.518;2023-07-31T02:34:08;15.80;67.30
10057;DHT22;5068;51.286;7.518;2023-07-31T02:35:41;15.70;67.30
10057;DHT22;5068;51.286;7.518;2023-07-31T02:37:14;15.80;67.40
10057;DHT22;5068;51.286;7.518;2023-07-31T02:38:47;15.80;67.50
10057;DHT22;5068;51.286;7.518;2023-07-31T02:40:20;15.70;67.30
10057;DHT22;5068;51.286;7.518;2023-07-31T02:41:53;15.70;67.30
10057;DHT22;5068;51.286;7.518;2023-07-31T02:43:25;15.90;67.60
10057;DHT22;5068;51.286;7.518;2023-07-31T02:45:00;15.70;67.20
10057;DHT22;5068;51.286;7.518;2023-07-31T02:46:33;15.80;67.10
10057;DHT22;5068;51.286;7.518;2023-07-31T02:48:06;15.80;66.90
10057;DHT22;5068;51.286;7.518;2023-07-31T02:49:39;15.80;67.00
10057;DHT22;5068;51.286;7.518;2023-07-31T02:51:12;15.80;67.10
10057;DHT22;5068;51.286;7.518;2023-07-31T02:52:45;15.80;67.00
10057;DHT22;5068;51.286;7.518;2023-07-31T02:54:18;15.80;67.20
10057;DHT22;5068;51.286;7.518;2023-07-31T02:55:53;15.80;67.00
10057;DHT22;5068;51.286;7.518;2023-07-31T02:57:27;15.80;67.40
10057;DHT22;5068;51.286;7.518;2023-07-31T02:58:59;15.80;66.70
10057;DHT22;5068;51.286;7.518;2023-07-31T03:00:34;15.80;66.70
10057;DHT22;5068;51.286;7.518;2023-07-31T03:02:07;15.80;66.90
10057;DHT22;5068;51.286;7.518;2023-07-31T03:03:41;15.80;67.10
10057;DHT22;5068;51.286;7.518;2023-07-31T03:05:14;15.80;66.90
10057;DHT22;5068;51.286;7.518;2023-07-31T03:06:47;15.80;66.80
10057;DHT22;5068;51.286;7.518;2023-07-31T03:08:20;15.80;66.70
10057;DHT22;5068;51.286;7.518;2023-07-31T03:09:54;15.80;66.80
10057;DHT22;5068;51.286;7.518;2023-07-31T03:11:26;15.80;66.70
10057;DHT22;5068;51.286;7.518;2023-07-31T03:13:01;15.90;66.70
10057;DHT22;5068;51.286;7.518;2023-07-31T03:14:33;15.90;66.90
10057;DHT22;5068;51.286;7.518;2023-07-31T03:16:08;15.80;67.00
10057;DHT22;5068;51.286;7.518;2023-07-31T03:17:41;15.80;66.50
10057;DHT22;5068;51.286;7.518;2023-07-31T03:19:14;15.80;66.70
10057;DHT22;5068;51.286;7.518;2023-07-31T03:20:47;15.80;66.70
10057;DHT22;5068;51.286;7.518;2023-07-31T03:22:21;15.80;66.70
10057;DHT22;5068;51.286;7.518;2023-07-31T03:23:53;15.80;66.70
10057;DHT22;5068;51.286;7.518;2023-07-31T03:25:27;15.80;66.60
10057;DHT22;5068;51.286;7.518;2023-07-31T03:26:59;15.90;66.70
10057;DHT22;5068;51.286;7.518;2023-07-31T03:28:32;15.90;66.70
10057;DHT22;5068;51.286;7.518;2023-07-31T03:30:06;15.90;66.70
10057;DHT22;5068;51.286;7.518;2023-07-31T03:31:42;15.80;66.60
10057;DHT22;5068;51.286;7.518;2023-07-31T03:33:27;15.90;66.30
10057;DHT22;5068;51.286;7.518;2023-07-31T03:35:01;15.90;66.80
10057;DHT22;5068;51.286;7.518;2023-07-31T03:36:34;15.90;66.70
10057;DHT22;5068;51.286;7.518;2023-07-31T03:38:08;15.90;66.50
10057;DHT22;5068;51.286;7.518;2023-07-31T03:39:43;15.90;66.40
10057;DHT22;5068;51.286;7.518;2023-07-31T03:41:17;15.90;66.40
10057;DHT22;5068;51.286;7.518;2023-07-31T03:42:49;15.90;66.30
10057;DHT22;5068;51.286;7.518;2023-07-31T03:44:22;16.00;66.50
10057;DHT22;5068;51.286;7.518;2023-07-31T03:45:56;16.00;66.50
10057;DHT22;5068;51.286;7.518;2023-07-31T03:47:31;16.00;66.20
10057;DHT22;5068;51.286;7.518;2023-07-31T03:49:04;16.00;66.60
10057;DHT22;5068;51.286;7.518;2023-07-31T03:50:37;15.90;66.50
10057;DHT22;5068;51.286;7.518;2023-07-31T03:52:11;15.90;66.60
10057;DHT22;5068;51.286;7.518;2023-07-31T03:53:43;16.00;66.60
10057;DHT22;5068;51.286;7.518;2023-07-31T03:55:17;16.00;66.70
10057;DHT22;5068;51.286;7.518;2023-07-31T03:56:50;16.00;66.60
10057;DHT22;5068;51.286;7.518;2023-07-31T03:58:23;16.00;66.40
10057;DHT22;5068;51.286;7.518;2023-07-31T03:59:55;16.00;66.50
10057;DHT22;5068;51.286;7.518;2023-07-31T04:01:29;16.00;66.50
10057;DHT22;5068;51.286;7.518;2023-07-31T04:03:03;16.00;66.60
10057;DHT22;5068;51.286;7.518;2023-07-31T04:04:37;16.00;66.30
10057;DHT22;5068;51.286;7.518;2023-07-31T04:06:10;16.00;66.50
10057;DHT22;5068;51.286;7.518;2023-07-31T04:07:43;16.00;66.60
10057;DHT22;5068;51.286;7.518;2023-07-31T04:09:16;16.00;66.40
10057;DHT22;5068;51.286;7.518;2023-07-31T04:10:49;16.10;66.50
10057;DHT22;5068;51.286;7.518;2023-07-31T04:12:22;16.00;66.60
10057;DHT22;5068;51.286;7.518;2023-07-31T04:13:55;16.00;66.70
10057;DHT22;5068;51.286;7.518;2023-07-31T04:15:28;15.90;66.70
10057;DHT22;5068;51.286;7.518;2023-07-31T04:17:00;15.90;66.70
10057;DHT22;5068;51.286;7.518;2023-07-31T04:18:35;15.90;67.00
10057;DHT22;5068;51.286;7.518;2023-07-31T04:20:09;16.00;67.20
10057;DHT22;5068;51.286;7.518;2023-07-31T04:21:43;16.00;67.60
10057;DHT22;5068;51.286;7.518;2023-07-31T04:23:15;16.00;67.20
10057;DHT22;5068;51.286;7.518;2023-07-31T04:24:49;16.00;67.10
10057;DHT22;5068;51.286;7.518;2023-07-31T04:26:22;16.00;66.90
10057;DHT22;5068;51.286;7.518;2023-07-31T04:27:56;16.00;67.00
10057;DHT22;5068;51.286;7.518;2023-07-31T04:29:28;16.00;67.00
10057;DHT22;5068;51.286;7.518;2023-07-31T04:31:02;16.00;66.90
10057;DHT22;5068;51.286;7.518;2023-07-31T04:32:35;16.00;66.90
10057;DHT22;5068;51.286;7.518;2023-07-31T04:34:10;16.00;66.80
10057;DHT22;5068;51.286;7.518;2023-07-31T04:35:49;16.00;67.60
10057;DHT22;5068;51.286;7.518;2023-07-31T04:37:24;16.00;67.10
10057;DHT22;5068;51.286;7.518;2023-07-31T04:38:58;16.10;66.70
10057;DHT22;5068;51.286;7.518;2023-07-31T04:40:31;16.10;66.40
10057;DHT22;5068;51.286;7.518;2023-07-31T04:42:04;16.10;67.10
10057;DHT22;5068;51.286;7.518;2023-07-31T04:43:38;16.10;67.10
10057;DHT22;5068;51.286;7.518;2023-07-31T04:45:11;16.10;67.10
10057;DHT22;5068;51.286;7.518;2023-07-31T04:46:44;16.10;67.10
10057;DHT22;5068;51.286;7.518;2023-07-31T04:48:17;16.10;67.00
10057;DHT22;5068;51.286;7.518;2023-07-31T04:49:52;16.10;66.90
10057;DHT22;5068;51.286;7.518;2023-07-31T04:51:24;16.10;67.00
10057;DHT22;5068;51.286;7.518;2023-07-31T04:52:57;16.30;67.00
10057;DHT22;5068;51.286;7.518;2023-07-31T04:54:30;16.20;66.90
10057;DHT22;5068;51.286;7.518;2023-07-31T04:56:04;16.20;66.70
10057;DHT22;5068;51.286;7.518;2023-07-31T04:57:36;16.20;66.80
10057;DHT22;5068;51.286;7.518;2023-07-31T04:59:09;16.20;66.80
10057;DHT22;5068;51.286;7.518;2023-07-31T05:00:42;16.20;67.00
10057;DHT22;5068;51.286;7.518;2023-07-31T05:02:15;16.20;67.00
10057;DHT22;5068;51.286;7.518;2023-07-31T05:03:48;16.20;67.00
10057;DHT22;5068;51.286;7.518;2023-07-31T05:05:23;16.20;67.20
10057;DHT22;5068;51.286;7.518;2023-07-31T05:06:56;16.20;67.50
10057;DHT22;5068;51.286;7.518;2023-07-31T05:08:29;16.20;67.30
10057;DHT22;5068;51.286;7.518;2023-07-31T05:10:02;16.20;67.30
10057;DHT22;5068;51.286;7.518;2023-07-31T05:11:36;16.20;67.40
10057;DHT22;5068;51.286;7.518;2023-07-31T05:13:08;16.30;67.30
10057;DHT22;5068;51.286;7.518;2023-07-31T05:14:42;16.20;67.20
10057;DHT22;5068;51.286;7.518;2023-07-31T05:16:15;16.30;67.60
10057;DHT22;5068;51.286;7.518;2023-07-31T05:17:48;16.30;67.60
10057;DHT22;5068;51.286;7.518;2023-07-31T05:19:21;16.30;67.80
10057;DHT22;5068;51.286;7.518;2023-07-31T05:20:55;16.30;67.80
10057;DHT22;5068;51.286;7.518;2023-07-31T05:22:28;16.30;67.70
10057;DHT22;5068;51.286;7.518;2023-07-31T05:24:01;16.30;67.60
10057;DHT22;5068;51.286;7.518;2023-07-31T05:25:34;16.30;67.70
10057;DHT22;5068;51.286;7.518;2023-07-31T05:27:07;16.30;67.70
10057;DHT22;5068;51.286;7.518;2023-07-31T05:28:41;16.30;67.60
10057;DHT22;5068;51.286;7.518;2023-07-31T05:30:15;16.30;67.70
10057;DHT22;5068;51.286;7.518;2023-07-31T05:31:47;16.20;67.70
10057;DHT22;5068;51.286;7.518;2023-07-31T05:33:21;16.30;67.90
10057;DHT22;5068;51.286;7.518;2023-07-31T05:34:53;16.40;67.90
10057;DHT22;5068;51.286;7.518;2023-07-31T05:36:29;16.30;67.70
10057;DHT22;5068;51.286;7.518;2023-07-31T05:38:02;16.40;68.00
10057;DHT22;5068;51.286;7.518;2023-07-31T05:39:35;16.40;68.10
10057;DHT22;5068;51.286;7.518;2023-07-31T05:41:09;16.40;68.00
10057;DHT22;5068;51.286;7.518;2023-07-31T05:42:41;16.40;68.00
10057;DHT22;5068;51.286;7.518;2023-07-31T05:44:15;16.50;68.60
10057;DHT22;5068;51.286;7.518;2023-07-31T05:45:47;16.40;67.90
10057;DHT22;5068;51.286;7.518;2023-07-31T05:47:21;16.40;67.90
10057;DHT22;5068;51.286;7.518;2023-07-31T05:48:54;16.40;67.70
10057;DHT22;5068;51.286;7.518;2023-07-31T05:50:27;16.40;67.80
10057;DHT22;5068;51.286;7.518;2023-07-31T05:52:02;16.40;67.90
10057;DHT22;5068;51.286;7.518;2023-07-31T05:53:35;16.40;68.00
10057;DHT22;5068;51.286;7.518;2023-07-31T05:55:12;16.50;67.90
10057;DHT22;5068;51.286;7.518;2023-07-31T05:56:45;16.40;67.80
10057;DHT22;5068;51.286;7.518;2023-07-31T05:58:18;16.50;67.90
10057;DHT22;5068;51.286;7.518;2023-07-31T05:59:51;16.50;67.80
10057;DHT22;5068;51.286;7.518;2023-07-31T06:01:25;16.50;67.90
10057;DHT22;5068;51.286;7.518;2023-07-31T06:02:58;16.50;67.70
10057;DHT22;5068;51.286;7.518;2023-07-31T06:04:31;16.50;68.60
10057;DHT22;5068;51.286;7.518;2023-07-31T06:06:05;16.50;67.80
10057;DHT22;5068;51.286;7.518;2023-07-31T06:07:38;16.60;67.90
10057;DHT22;5068;51.286;7.518;2023-07-31T06:09:12;16.60;68.10
10057;DHT22;5068;51.286;7.518;2023-07-31T06:10:45;16.50;67.70
10057;DHT22;5068;51.286;7.518;2023-07-31T06:12:19;16.60;67.80
10057;DHT22;5068;51.286;7.518;2023-07-31T06:13:52;16.60;67.80
10057;DHT22;5068;51.286;7.518;2023-07-31T06:15:25;16.60;67.70
10057;DHT22;5068;51.286;7.518;2023-07-31T06:16:59;16.60;67.50
10057;DHT22;5068;51.286;7.518;2023-07-31T06:18:32;16.60;67.40
10057;DHT22;5068;51.286;7.518;2023-07-31T06:20:07;16.60;67.40
10057;DHT22;5068;51.286;7.518;2023-07-31T06:21:40;16.60;67.50
10057;DHT22;5068;51.286;7.518;2023-07-31T06:23:15;16.60;67.20
10057;DHT22;5068;51.286;7.518;2023-07-31T06:24:50;16.70;67.30
10057;DHT22;5068;51.286;7.518;2023-07-31T06:26:23;16.60;67.10
10057;DHT22;5068;51.286;7.518;2023-07-31T06:27:56;16.60;67.90
10057;DHT22;5068;51.286;7.518;2023-07-31T06:29:31;16.80;67.10
10057;DHT22;5068;51.286;7.518;2023-07-31T06:31:04;16.70;67.10
10057;DHT22;5068;51.286;7.518;2023-07-31T06:32:37;16.70;66.80
10057;DHT22;5068;51.286;7.518;2023-07-31T06:34:10;16.70;66.90
10057;DHT22;5068;51.286;7.518;2023-07-31T06:35:43;16.80;67.20
10057;DHT22;5068;51.286;7.518;2023-07-31T06:37:16;16.70;67.00
10057;DHT22;5068;51.286;7.518;2023-07-31T06:38:51;16.70;66.50
10057;DHT22;5068;51.286;7.518;2023-07-31T06:40:24;16.70;65.80
10057;DHT22;5068;51.286;7.518;2023-07-31T06:41:57;16.70;66.30
10057;DHT22;5068;51.286;7.518;2023-07-31T06:43:30;16.70;66.40
10057;DHT22;5068;51.286;7.518;2023-07-31T06:45:04;16.70;66.70
10057;DHT22;5068;51.286;7.518;2023-07-31T06:46:38;16.70;67.70
10057;DHT22;5068;51.286;7.518;2023-07-31T06:48:11;16.70;66.30
10057;DHT22;5068;51.286;7.518;2023-07-31T06:49:45;16.70;66.60
10057;DHT22;5068;51.286;7.518;2023-07-31T06:51:17;16.70;66.70
10057;DHT22;5068;51.286;7.518;2023-07-31T06:52:50;16.80;66.60
10057;DHT22;5068;51.286;7.518;2023-07-31T06:54:25;16.70;66.50
10057;DHT22;5068;51.286;7.518;2023-07-31T06:55:58;16.80;66.70
10057;DHT22;5068;51.286;7.518;2023-07-31T06:57:31;16.80;67.00
10057;DHT22;5068;51.286;7.518;2023-07-31T06:59:03;16.80;66.80
10057;DHT22;5068;51.286;7.518;2023-07-31T07:00:37;16.70;66.90
10057;DHT22;5068;51.286;7.518;2023-07-31T07:02:09;16.80;67.90
10057;DHT22;5068;51.286;7.518;2023-07-31T07:03:43;16.80;67.10
10057;DHT22;5068;51.286;7.518;2023-07-31T07:05:16;16.80;67.30
10057;DHT22;5068;51.286;7.518;2023-07-31T07:06:50;16.80;67.50
10057;DHT22;5068;51.286;7.518;2023-07-31T07:08:24;16.80;66.70
10057;DHT22;5068;51.286;7.518;2023-07-31T07:09:59;16.80;68.40
10057;DHT22;5068;51.286;7.518;2023-07-31T07:11:32;16.80;67.20
10057;DHT22;5068;51.286;7.518;2023-07-31T07:13:06;16.80;67.10
10057;DHT22;5068;51.286;7.518;2023-07-31T07:14:38;16.70;67.30
10057;DHT22;5068;51.286;7.518;2023-07-31T07:16:12;16.80;67.50
10057;DHT22;5068;51.286;7.518;2023-07-31T07:17:44;16.80;67.70
10057;DHT22;5068;51.286;7.518;2023-07-31T07:19:17;16.80;67.50
10057;DHT22;5068;51.286;7.518;2023-07-31T07:20:51;16.80;67.50
10057;DHT22;5068;51.286;7.518;2023-07-31T07:22:26;16.80;67.90
10057;DHT22;5068;51.286;7.518;2023-07-31T07:23:59;16.90;68.10
10057;DHT22;5068;51.286;7.518;2023-07-31T07:25:37;16.80;67.80
10057;DHT22;5068;51.286;7.518;2023-07-31T07:27:11;16.90;68.00
10057;DHT22;5068;51.286;7.518;2023-07-31T07:28:44;16.90;67.60
10057;DHT22;5068;51.286;7.518;2023-07-31T07:30:18;16.90;67.60
10057;DHT22;5068;51.286;7.518;2023-07-31T07:31:51;16.90;67.50
10057;DHT22;5068;51.286;7.518;2023-07-31T07:33:25;16.90;67.30
10057;DHT22;5068;51.286;7.518;2023-07-31T07:34:58;16.90;67.40
10057;DHT22;5068;51.286;7.518;2023-07-31T07:36:31;16.90;67.70
10057;DHT22;5068;51.286;7.518;2023-07-31T07:38:05;16.90;67.50
10057;DHT22;5068;51.286;7.518;2023-07-31T07:39:37;16.90;67.50
10057;DHT22;5068;51.286;7.518;2023-07-31T07:41:12;16.90;67.60
10057;DHT22;5068;51.286;7.518;2023-07-31T07:42:46;16.90;67.50
10057;DHT22;5068;51.286;7.518;2023-07-31T07:44:18;16.90;67.60
10057;DHT22;5068;51.286;7.518;2023-07-31T07:45:52;16.90;67.50
10057;DHT22;5068;51.286;7.518;2023-07-31T07:47:25;16.90;67.30
10057;DHT22;5068;51.286;7.518;2023-07-31T07:49:00;16.90;67.10
10057;DHT22;5068;51.286;7.518;2023-07-31T07:50:33;16.90;67.40
10057;DHT22;5068;51.286;7.518;2023-07-31T07:52:06;16.90;67.30
10057;DHT22;5068;51.286;7.518;2023-07-31T07:53:39;16.90;67.80
10057;DHT22;5068;51.286;7.518;2023-07-31T07:55:12;16.80;67.60
10057;DHT22;5068;51.286;7.518;2023-07-31T07:56:46;16.90;67.80
10057;DHT22;5068;51.286;7.518;2023-07-31T07:58:20;16.80;67.50
10057;DHT22;5068;51.286;7.518;2023-07-31T07:59:52;16.80;67.40
10057;DHT22;5068;51.286;7.518;2023-07-31T08:01:26;16.90;67.80
10057;DHT22;5068;51.286;7.518;2023-07-31T08:02:58;16.90;67.90
10057;DHT22;5068;51.286;7.518;2023-07-31T08:04:32;16.90;68.20
10057;DHT22;5068;51.286;7.518;2023-07-31T08:06:04;16.90;68.20
10057;DHT22;5068;51.286;7.518;2023-07-31T08:07:38;17.00;68.20
10057;DHT22;5068;51.286;7.518;2023-07-31T08:09:10;16.90;68.70
10057;DHT22;5068;51.286;7.518;2023-07-31T08:10:44;16.90;68.00
10057;DHT22;5068;51.286;7.518;2023-07-31T08:12:18;16.80;68.00
10057;DHT22;5068;51.286;7.518;2023-07-31T08:13:51;16.80;68.00
10057;DHT22;5068;51.286;7.518;2023-07-31T08:15:24;16.90;68.20
10057;DHT22;5068;51.286;7.518;2023-07-31T08:16:57;16.90;68.20
10057;DHT22;5068;51.286;7.518;2023-07-31T08:18:31;16.90;68.60
10057;DHT22;5068;51.286;7.518;2023-07-31T08:20:07;16.90;68.70
10057;DHT22;5068;51.286;7.518;2023-07-31T08:21:40;16.80;69.20
10057;DHT22;5068;51.286;7.518;2023-07-31T08:23:13;16.80;68.60
10057;DHT22;5068;51.286;7.518;2023-07-31T08:24:46;16.80;68.30
10057;DHT22;5068;51.286;7.518;2023-07-31T08:26:21;16.90;68.90
10057;DHT22;5068;51.286;7.518;2023-07-31T08:27:55;16.90;68.60
10057;DHT22;5068;51.286;7.518;2023-07-31T08:29:29;17.10;69.10
10057;DHT22;5068;51.286;7.518;2023-07-31T08:31:01;16.90;68.70
10057;DHT22;5068;51.286;7.518;2023-07-31T08:32:36;17.00;69.20
10057;DHT22;5068;51.286;7.518;2023-07-31T08:34:09;17.00;68.90
10057;DHT22;5068;51.286;7.518;2023-07-31T08:35:42;17.00;68.90
10057;DHT22;5068;51.286;7.518;2023-07-31T08:37:15;17.00;68.60
10057;DHT22;5068;51.286;7.518;2023-07-31T08:38:48;17.00;68.10
10057;DHT22;5068;51.286;7.518;2023-07-31T08:40:23;17.00;68.60
10057;DHT22;5068;51.286;7.518;2023-07-31T08:42:00;17.00;68.50
10057;DHT22;5068;51.286;7.518;2023-07-31T08:43:38;17.00;68.40
10057;DHT22;5068;51.286;7.518;2023-07-31T08:45:14;17.00;68.60
10057;DHT22;5068;51.286;7.518;2023-07-31T08:46:48;17.00;68.70
10057;DHT22;5068;51.286;7.518;2023-07-31T08:48:23;16.90;68.50
10057;DHT22;5068;51.286;7.518;2023-07-31T08:49:57;16.90;68.40
10057;DHT22;5068;51.286;7.518;2023-07-31T08:51:34;17.00;68.80
10057;DHT22;5068;51.286;7.518;2023-07-31T08:53:08;17.00;68.80
10057;DHT22;5068;51.286;7.518;2023-07-31T08:54:41;17.10;68.70
10057;DHT22;5068;51.286;7.518;2023-07-31T08:56:15;17.20;68.90
10057;DHT22;5068;51.286;7.518;2023-07-31T08:57:51;17.00;68.80
10057;DHT22;5068;51.286;7.518;2023-07-31T08:59:25;17.00;68.90
10057;DHT22;5068;51.286;7.518;2023-07-31T09:01:04;17.00;69.00
10057;DHT22;5068;51.286;7.518;2023-07-31T09:02:43;17.00;68.60
10057;DHT22;5068;51.286;7.518;2023-07-31T09:04:18;17.00;68.60
10057;DHT22;5068;51.286;7.518;2023-07-31T09:05:57;17.00;68.70
10057;DHT22;5068;51.286;7.518;2023-07-31T09:07:33;17.00;68.80
10057;DHT22;5068;51.286;7.518;2023-07-31T09:09:06;17.00;68.80
10057;DHT22;5068;51.286;7.518;2023-07-31T09:10:41;17.00;68.70
10057;DHT22;5068;51.286;7.518;2023-07-31T09:12:16;17.00;68.80
10057;DHT22;5068;51.286;7.518;2023-07-31T09:13:50;17.00;68.80
10057;DHT22;5068;51.286;7.518;2023-07-31T09:15:25;17.00;68.90
10057;DHT22;5068;51.286;7.518;2023-07-31T09:17:09;17.00;69.10
10057;DHT22;5068;51.286;7.518;2023-07-31T09:18:53;17.00;69.00
10057;DHT22;5068;51.286;7.518;2023-07-31T09:20:29;16.90;69.00
10057;DHT22;5068;51.286;7.518;2023-07-31T09:22:01;16.90;68.80
10057;DHT22;5068;51.286;7.518;2023-07-31T09:23:42;16.80;68.30
10057;DHT22;5068;51.286;7.518;2023-07-31T09:25:15;17.00;68.50
10057;DHT22;5068;51.286;7.518;2023-07-31T09:26:53;17.00;68.50
10057;DHT22;5068;51.286;7.518;2023-07-31T09:28:31;17.00;68.10
10057;DHT22;5068;51.286;7.518;2023-07-31T09:30:07;16.90;67.80
10057;DHT22;5068;51.286;7.518;2023-07-31T09:31:43;16.90;67.80
10057;DHT22;5068;51.286;7.518;2023-07-31T09:33:18;16.90;67.80
10057;DHT22;5068;51.286;7.518;2023-07-31T09:34:52;16.90;68.10
10057;DHT22;5068;51.286;7.518;2023-07-31T09:36:29;16.90;67.90
10057;DHT22;5068;51.286;7.518;2023-07-31T09:38:05;17.00;68.20
10057;DHT22;5068;51.286;7.518;2023-07-31T09:39:46;16.90;68.00
10057;DHT22;5068;51.286;7.518;2023-07-31T09:41:19;16.90;68.20
10057;DHT22;5068;51.286;7.518;2023-07-31T09:42:54;16.90;67.90
10057;DHT22;5068;51.286;7.518;2023-07-31T09:44:40;16.80;68.00
10057;DHT22;5068;51.286;7.518;2023-07-31T09:46:14;16.90;68.70
10057;DHT22;5068;51.286;7.518;2023-07-31T09:47:50;16.90;68.40
10057;DHT22;5068;51.286;7.518;2023-07-31T09:49:25;16.80;68.50
10057;DHT22;5068;51.286;7.518;2023-07-31T09:51:04;16.80;68.60
10057;DHT22;5068;51.286;7.518;2023-07-31T09:52:38;16.90;68.70
10057;DHT22;5068;51.286;7.518;2023-07-31T09:54:11;16.90;68.80
10057;DHT22;5068;51.286;7.518;2023-07-31T09:55:46;16.90;69.40
10057;DHT22;5068;51.286;7.518;2023-07-31T09:57:21;16.80;68.10
10057;DHT22;5068;51.286;7.518;2023-07-31T09:58:57;17.00;69.10
10057;DHT22;5068;51.286;7.518;2023-07-31T10:00:30;16.90;68.90
10057;DHT22;5068;51.286;7.518;2023-07-31T10:02:04;16.90;69.10
10057;DHT22;5068;51.286;7.518;2023-07-31T10:03:45;16.90;69.50
10057;DHT22;5068;51.286;7.518;2023-07-31T10:05:21;17.00;69.40